createdAt,value
2022-10-17T00:01:00.463Z,59.33
2022-10-17T00:03:27.638Z,59.30
2022-10-17T00:05:54.911Z,58.67
2022-10-17T00:08:22.100Z,58.60
2022-10-17T00:11:05.516Z,60.63
2022-10-17T00:16:07.320Z,59.97
2022-10-17T00:18:34.634Z,59.80
2022-10-17T00:21:01.871Z,57.10
2022-10-17T00:23:30.252Z,56.28
2022-10-17T00:26:05.124Z,56.63
2022-10-17T00:28:33.223Z,56.67
2022-10-17T00:31:04.580Z,55.47
2022-10-17T00:33:35.287Z,55.63
2022-10-17T00:36:14.840Z,57.15
2022-10-17T00:38:46.985Z,56.85
2022-10-17T00:41:20.881Z,57.38
2022-10-17T00:44:08.160Z,56.53
2022-10-17T00:46:38.817Z,55.42
2022-10-17T00:49:12.480Z,54.55
2022-10-17T00:51:49.638Z,55.47
2022-10-17T00:54:21.663Z,56.60
2022-10-17T00:56:50.314Z,56.78
2022-10-17T00:59:20.458Z,55.90
2022-10-17T01:02:01.201Z,56.55
2022-10-17T01:04:28.425Z,57.40
2022-10-17T01:06:55.569Z,56.42
2022-10-17T01:09:24.208Z,56.58
2022-10-17T01:12:11.975Z,58.78
2022-10-17T01:15:33.572Z,57.05
2022-10-17T01:18:42.922Z,57.25
2022-10-17T01:21:53.373Z,61.58
2022-10-17T01:25:09.303Z,58.25
2022-10-17T01:28:35.529Z,59.70
2022-10-17T01:31:06.469Z,60.63
2022-10-17T01:34:06.479Z,59.17
2022-10-17T01:36:50.541Z,59.10
2022-10-17T01:39:52.325Z,59.92
2022-10-17T01:42:35.429Z,59.42
2022-10-17T01:45:23.206Z,59.33
2022-10-17T01:47:54.714Z,60.65
2022-10-17T01:50:34.232Z,59.75
2022-10-17T01:53:24.541Z,59.72
2022-10-17T01:58:51.813Z,61.00
2022-10-17T02:01:21.023Z,61.10
2022-10-17T02:03:51.136Z,61.05
2022-10-17T02:06:18.353Z,62.55
2022-10-17T02:08:50.232Z,60.75
2022-10-17T02:11:25.684Z,60.40
2022-10-17T02:15:00.308Z,61.35
2022-10-17T02:17:45.376Z,61.17
2022-10-17T02:20:39.365Z,62.72
2022-10-17T02:23:47.141Z,61.78
2022-10-17T02:26:38.721Z,61.47
2022-10-17T02:29:31.475Z,62.95
2022-10-17T02:32:18.783Z,66.15
2022-10-17T02:34:53.077Z,64.38
2022-10-17T02:37:27.910Z,64.90
2022-10-17T02:39:59.586Z,63.03
2022-10-17T02:42:29.475Z,61.40
2022-10-17T02:45:01.711Z,63.08
2022-10-17T02:48:25.724Z,64.20
2022-10-17T02:51:35.929Z,62.88
2022-10-17T02:54:33.268Z,62.72
2022-10-17T02:57:12.258Z,61.17
2022-10-17T02:59:41.814Z,63.85
2022-10-17T03:02:09.088Z,64.53
2022-10-17T03:04:36.502Z,67.57
2022-10-17T03:07:03.720Z,66.22
2022-10-17T03:09:31.004Z,67.00
2022-10-17T03:11:58.344Z,68.68
2022-10-17T03:14:25.902Z,65.78
2022-10-17T03:16:53.179Z,66.55
2022-10-17T03:19:20.428Z,68.85
2022-10-17T03:21:47.765Z,68.78
2022-10-17T03:24:15.052Z,66.43
2022-10-17T03:26:42.346Z,66.70
2022-10-17T03:29:09.768Z,67.18
2022-10-17T03:31:37.079Z,68.03
2022-10-17T03:34:06.278Z,68.13
2022-10-17T03:36:33.619Z,68.53
2022-10-17T03:39:01.923Z,67.63
2022-10-17T03:41:29.696Z,69.00
2022-10-17T03:43:56.916Z,66.38
2022-10-17T03:46:24.806Z,69.80
2022-10-17T03:48:52.433Z,67.60
2022-10-17T03:51:19.732Z,68.22
2022-10-17T03:53:51.889Z,66.25
2022-10-17T03:56:25.387Z,66.03
2022-10-17T03:59:00.419Z,67.13
2022-10-17T04:01:29.581Z,66.57
2022-10-17T04:03:57.783Z,65.20
2022-10-17T04:06:28.369Z,64.72
2022-10-17T04:08:55.569Z,63.65
2022-10-17T04:11:27.829Z,64.25
2022-10-17T04:13:59.692Z,62.22
2022-10-17T04:16:28.436Z,64.47
2022-10-17T04:19:00.770Z,65.18
2022-10-17T04:21:31.953Z,65.93
2022-10-17T04:24:04.820Z,66.78
2022-10-17T04:26:53.439Z,65.72
2022-10-17T04:29:24.297Z,67.95
2022-10-17T04:31:55.903Z,65.65
2022-10-17T04:34:33.193Z,65.82
2022-10-17T04:37:00.572Z,67.13
2022-10-17T04:39:28.290Z,63.72
2022-10-17T04:41:56.547Z,65.57
2022-10-17T04:44:24.048Z,64.18
2022-10-17T04:46:52.833Z,62.20
2022-10-17T04:49:20.424Z,63.72
2022-10-17T04:51:52.047Z,62.75
2022-10-17T04:54:24.924Z,64.55
2022-10-17T04:56:58.383Z,63.50
2022-10-17T04:59:26.406Z,63.33
2022-10-17T05:02:04.948Z,62.10
2022-10-17T05:04:33.753Z,61.92
2022-10-17T05:07:01.184Z,61.92
2022-10-17T05:10:00.577Z,60.60
2022-10-17T05:12:29.189Z,60.80
2022-10-17T05:14:56.601Z,60.05
2022-10-17T05:17:26.807Z,57.92
2022-10-17T05:19:54.042Z,56.58
2022-10-17T05:22:21.322Z,60.05
2022-10-17T05:24:49.213Z,59.50
2022-10-17T05:27:16.451Z,59.25
2022-10-17T05:29:44.100Z,60.53
2022-10-17T05:32:18.831Z,58.70
2022-10-17T05:34:46.017Z,59.55
2022-10-17T05:37:13.712Z,59.85
2022-10-17T05:39:46.826Z,57.75
2022-10-17T05:42:18.491Z,57.15
2022-10-17T05:44:46.300Z,58.60
2022-10-17T05:47:15.230Z,58.15
2022-10-17T05:49:49.952Z,56.15
2022-10-17T05:52:21.763Z,55.58
2022-10-17T05:55:06.162Z,56.10
2022-10-17T05:57:34.358Z,54.78
2022-10-17T06:00:02.499Z,53.83
2022-10-17T06:02:42.357Z,51.40
2022-10-17T06:05:11.824Z,51.85
2022-10-17T06:07:39.157Z,52.47
2022-10-17T06:10:07.780Z,53.67
2022-10-17T06:12:35.130Z,52.72
2022-10-17T06:15:02.720Z,54.40
2022-10-17T06:17:30.369Z,52.53
2022-10-17T06:19:58.713Z,51.00
2022-10-17T06:22:26.046Z,50.45
2022-10-17T06:24:53.778Z,49.25
2022-10-17T06:27:22.405Z,47.67
2022-10-17T06:29:51.210Z,47.83
2022-10-17T06:32:18.605Z,48.65
2022-10-17T06:34:47.270Z,49.17
2022-10-17T06:37:15.708Z,49.67
2022-10-17T06:39:43.969Z,51.75
2022-10-17T06:42:13.599Z,49.97
2022-10-17T06:44:59.392Z,50.17
2022-10-17T06:47:52.881Z,105.32
2022-10-17T06:50:41.021Z,55.25
2022-10-17T06:53:18.181Z,65.72
2022-10-17T06:56:14.399Z,83.85
2022-10-17T06:59:01.804Z,68.43
2022-10-17T07:01:32.256Z,55.40
2022-10-17T07:04:01.069Z,49.40
2022-10-17T07:06:29.676Z,48.92
2022-10-17T07:09:00.985Z,81.97
2022-10-17T07:11:28.290Z,44.63
2022-10-17T07:13:55.573Z,43.38
2022-10-17T07:16:22.880Z,44.20
2022-10-17T07:18:57.724Z,43.60
2022-10-17T07:21:25.295Z,43.38
2022-10-17T07:23:52.760Z,43.17
2022-10-17T07:26:20.721Z,43.78
2022-10-17T07:28:55.228Z,42.10
2022-10-17T07:31:31.853Z,44.08
2022-10-17T07:34:00.608Z,42.55
2022-10-17T07:36:29.051Z,43.63
2022-10-17T07:38:57.312Z,41.35
2022-10-17T07:41:26.329Z,43.25
2022-10-17T07:43:53.938Z,45.40
2022-10-17T07:46:25.950Z,44.42
2022-10-17T07:48:53.300Z,42.78
2022-10-17T07:51:22.091Z,45.05
2022-10-17T07:53:49.433Z,46.38
2022-10-17T07:56:17.132Z,44.17
2022-10-17T07:58:44.720Z,43.45
2022-10-17T08:01:15.476Z,45.67
2022-10-17T08:03:48.753Z,44.88
2022-10-17T08:06:16.509Z,44.65
2022-10-17T08:08:44.217Z,43.70
2022-10-17T08:11:14.898Z,43.65
2022-10-17T08:13:42.591Z,42.80
2022-10-17T08:16:13.233Z,43.15
2022-10-17T08:18:43.120Z,42.95
2022-10-17T08:21:13.243Z,42.50
2022-10-17T08:23:40.880Z,43.78
2022-10-17T08:26:13.173Z,46.65
2022-10-17T08:28:41.239Z,50.67
2022-10-17T08:31:18.180Z,51.88
2022-10-17T08:33:47.517Z,49.55
2022-10-17T08:36:19.419Z,49.33
2022-10-17T08:38:51.646Z,51.72
2022-10-17T08:41:43.364Z,52.75
2022-10-17T08:44:41.894Z,51.33
2022-10-17T08:47:34.228Z,53.60
2022-10-17T08:50:07.416Z,51.28
2022-10-17T08:52:49.394Z,62.35
2022-10-17T08:55:37.824Z,50.63
2022-10-17T08:58:23.622Z,51.67
2022-10-17T09:01:02.525Z,53.13
2022-10-17T09:03:59.127Z,48.90
2022-10-17T09:06:39.662Z,52.50
2022-10-17T09:09:38.045Z,55.03
2022-10-17T09:12:33.256Z,53.47
2022-10-17T09:15:17.705Z,55.45
2022-10-17T09:18:02.465Z,52.83
2022-10-17T09:21:06.057Z,50.88
2022-10-17T09:24:15.818Z,55.30
2022-10-17T09:26:46.909Z,50.50
2022-10-17T09:29:37.948Z,51.65
2022-10-17T09:32:23.048Z,51.22
2022-10-17T09:34:51.867Z,52.08
2022-10-17T09:37:19.724Z,50.50
2022-10-17T09:39:46.892Z,50.45
2022-10-17T09:42:25.820Z,51.22
2022-10-17T09:45:19.394Z,48.90
2022-10-17T09:48:35.405Z,53.13
2022-10-17T09:51:15.153Z,50.63
2022-10-17T09:54:01.933Z,52.75
2022-10-17T09:56:29.434Z,50.80
2022-10-17T09:58:58.616Z,51.25
2022-10-17T10:01:31.614Z,50.40
2022-10-17T10:04:17.669Z,52.67
2022-10-17T10:07:11.213Z,53.95
2022-10-17T10:09:40.196Z,50.00
2022-10-17T10:12:27.169Z,51.72
2022-10-17T10:14:55.872Z,52.40
2022-10-17T10:17:28.188Z,51.50
2022-10-17T10:19:56.016Z,50.72
2022-10-17T10:22:23.815Z,51.13
2022-10-17T10:25:17.404Z,54.08
2022-10-17T10:27:46.897Z,55.00
2022-10-17T10:30:30.459Z,51.45
2022-10-17T10:33:00.532Z,55.63
2022-10-17T10:35:37.803Z,51.03
2022-10-17T10:38:15.642Z,51.05
2022-10-17T10:40:56.755Z,54.80
2022-10-17T10:43:43.250Z,50.15
2022-10-17T10:46:27.644Z,50.70
2022-10-17T10:48:58.478Z,52.38
2022-10-17T10:51:47.284Z,53.45
2022-10-17T10:54:34.013Z,53.97
2022-10-17T10:57:07.283Z,52.55
2022-10-17T10:59:55.918Z,50.00
2022-10-17T11:02:54.514Z,51.35
2022-10-17T11:05:51.574Z,48.03
2022-10-17T11:09:35.278Z,51.53
2022-10-17T11:12:24.859Z,47.70
2022-10-17T11:15:08.707Z,49.03
2022-10-17T11:17:59.417Z,51.70
2022-10-17T11:20:52.298Z,47.58
2022-10-17T11:23:43.210Z,51.45
2022-10-17T11:26:26.833Z,48.38
2022-10-17T11:29:01.452Z,47.33
2022-10-17T11:31:39.388Z,50.95
2022-10-17T11:34:19.566Z,50.63
2022-10-17T11:36:54.636Z,48.80
2022-10-17T11:39:55.170Z,51.38
2022-10-17T11:42:31.825Z,49.40
2022-10-17T11:45:13.422Z,51.35
2022-10-17T11:47:50.642Z,51.50
2022-10-17T11:53:33.101Z,50.97
2022-10-17T11:56:02.102Z,46.33
2022-10-17T11:58:57.686Z,50.63
2022-10-17T12:02:01.598Z,52.90
2022-10-17T12:05:18.809Z,46.30
2022-10-17T12:10:56.885Z,44.88
2022-10-17T12:13:32.745Z,49.83
2022-10-17T12:16:21.422Z,48.55
2022-10-17T12:19:24.569Z,51.10
2022-10-17T12:22:20.169Z,54.50
2022-10-17T12:25:01.194Z,53.15
2022-10-17T12:27:43.378Z,51.78
2022-10-17T12:30:17.869Z,53.55
2022-10-17T12:33:22.490Z,51.70
2022-10-17T12:36:17.175Z,52.53
2022-10-17T12:38:49.952Z,52.65
2022-10-17T12:41:37.817Z,52.88
2022-10-17T12:44:14.457Z,54.47
2022-10-17T12:47:10.761Z,53.53
2022-10-17T12:49:49.664Z,55.08
2022-10-17T12:52:35.003Z,53.75
2022-10-17T12:55:11.937Z,54.97
2022-10-17T12:58:12.886Z,52.78
2022-10-17T13:01:23.132Z,52.53
2022-10-17T13:03:50.393Z,54.53
2022-10-17T13:06:30.340Z,54.33
2022-10-17T13:09:36.280Z,53.67
2022-10-17T13:12:13.653Z,53.10
2022-10-17T13:14:43.092Z,49.80
2022-10-17T13:17:29.309Z,48.50
2022-10-17T13:19:57.933Z,44.88
2022-10-17T13:22:32.906Z,50.45
2022-10-17T13:25:20.030Z,48.03
2022-10-17T13:27:49.504Z,50.60
2022-10-17T13:30:36.241Z,51.60
2022-10-17T13:33:18.109Z,52.25
2022-10-17T13:35:59.893Z,49.65
2022-10-17T13:38:35.647Z,46.25
2022-10-17T13:41:34.697Z,51.35
2022-10-17T13:46:40.887Z,43.53
2022-10-17T13:49:33.538Z,41.30
2022-10-17T13:52:04.516Z,42.63
2022-10-17T13:54:45.282Z,45.33
2022-10-17T13:57:32.124Z,40.42
2022-10-17T14:00:15.703Z,42.30
2022-10-17T14:02:43.112Z,42.40
2022-10-17T14:05:19.547Z,39.88
2022-10-17T14:08:12.082Z,40.63
2022-10-17T14:10:43.794Z,36.83
2022-10-17T14:13:36.130Z,38.78
2022-10-17T14:16:05.146Z,37.63
2022-10-17T14:18:36.951Z,38.20
2022-10-17T14:24:31.428Z,40.60
2022-10-17T14:27:00.507Z,35.72
2022-10-17T14:29:51.208Z,36.10
2022-10-17T14:32:19.863Z,34.05
2022-10-17T14:35:00.721Z,36.15
2022-10-17T14:37:48.738Z,35.92
2022-10-17T14:40:24.290Z,37.80
2022-10-17T14:42:54.680Z,35.70
2022-10-17T14:45:37.178Z,35.20
2022-10-17T14:48:14.505Z,35.17
2022-10-17T14:53:15.494Z,34.85
2022-10-17T14:56:01.770Z,36.67
2022-10-17T14:58:34.062Z,35.72
2022-10-17T15:01:02.488Z,35.25
2022-10-17T15:03:29.698Z,36.55
2022-10-17T15:05:56.933Z,36.22
2022-10-17T15:08:24.942Z,34.40
2022-10-17T15:10:52.697Z,35.33
2022-10-17T15:13:28.471Z,36.35
2022-10-17T15:15:57.951Z,35.92
2022-10-17T15:18:25.164Z,36.67
2022-10-17T15:20:59.783Z,38.05
2022-10-17T15:23:32.546Z,35.15
2022-10-17T15:25:59.734Z,36.65
2022-10-17T15:28:27.279Z,35.85
2022-10-17T15:30:54.554Z,33.13
2022-10-17T15:33:21.779Z,33.33
2022-10-17T15:35:49.143Z,33.28
2022-10-17T15:38:18.316Z,34.35
2022-10-17T15:40:48.817Z,35.58
2022-10-17T15:43:19.641Z,34.60
2022-10-17T15:45:48.171Z,36.08
2022-10-17T15:48:28.570Z,34.08
2022-10-17T15:50:55.821Z,32.40
2022-10-17T15:53:24.096Z,34.00
2022-10-17T15:55:52.046Z,32.53
2022-10-17T15:58:19.624Z,35.58
2022-10-17T16:00:47.762Z,33.92
2022-10-17T16:03:15.103Z,33.67
2022-10-17T16:05:42.397Z,33.97
2022-10-17T16:08:09.618Z,34.60
2022-10-17T16:10:40.797Z,35.05
2022-10-17T16:13:21.501Z,34.08
2022-10-17T16:15:48.720Z,34.75
2022-10-17T16:18:15.961Z,35.33
2022-10-17T16:20:43.188Z,33.90
2022-10-17T16:23:13.209Z,35.05
2022-10-17T16:25:41.086Z,35.33
2022-10-17T16:28:08.445Z,34.10
2022-10-17T16:30:44.770Z,36.45
2022-10-17T16:33:12.240Z,35.50
2022-10-17T16:35:39.651Z,34.20
2022-10-17T16:38:08.038Z,34.00
2022-10-17T16:40:38.096Z,33.53
2022-10-17T16:43:05.287Z,36.05
2022-10-17T16:45:32.943Z,34.35
2022-10-17T16:48:00.151Z,35.58
2022-10-17T16:50:27.334Z,34.17
2022-10-17T16:52:54.748Z,33.60
2022-10-17T16:55:21.970Z,34.80
2022-10-17T16:57:49.525Z,34.78
2022-10-17T17:00:17.940Z,35.25
2022-10-17T17:02:48.440Z,34.33
2022-10-17T17:05:16.225Z,35.80
2022-10-17T17:07:43.431Z,34.67
2022-10-17T17:10:10.572Z,33.75
2022-10-17T17:12:37.765Z,33.65
2022-10-17T17:15:05.575Z,37.53
2022-10-17T17:17:48.823Z,36.67
2022-10-17T17:20:18.611Z,34.47
2022-10-17T17:22:45.765Z,36.17
2022-10-17T17:25:12.942Z,34.78
2022-10-17T17:27:40.142Z,35.75
2022-10-17T17:30:08.134Z,35.13
2022-10-17T17:32:35.355Z,35.90
2022-10-17T17:35:02.609Z,36.25
2022-10-17T17:37:30.069Z,36.33
2022-10-17T17:39:57.341Z,36.80
2022-10-17T17:42:24.540Z,37.65
2022-10-17T17:44:52.212Z,37.75
2022-10-17T17:47:19.588Z,38.13
2022-10-17T17:49:46.753Z,37.85
2022-10-17T17:52:13.893Z,39.33
2022-10-17T17:54:41.227Z,40.08
2022-10-17T17:57:08.348Z,41.58
2022-10-17T17:59:35.543Z,39.47
2022-10-17T18:02:02.842Z,40.55
2022-10-17T18:04:30.171Z,40.78
2022-10-17T18:06:57.336Z,40.67
2022-10-17T18:09:24.473Z,40.42
2022-10-17T18:11:51.677Z,42.92
2022-10-17T18:14:23.657Z,41.15
2022-10-17T18:16:51.370Z,41.47
2022-10-17T18:19:18.853Z,43.83
2022-10-17T18:21:46.140Z,41.28
2022-10-17T18:24:13.307Z,43.13
2022-10-17T18:26:41.973Z,44.08
2022-10-17T18:29:09.178Z,43.53
2022-10-17T18:31:36.497Z,42.38
2022-10-17T18:34:05.718Z,43.28
2022-10-17T18:36:35.042Z,42.88
2022-10-17T18:39:02.429Z,42.25
2022-10-17T18:41:30.329Z,40.92
2022-10-17T18:43:58.118Z,41.78
2022-10-17T18:46:35.971Z,41.45
2022-10-17T18:49:03.710Z,43.33
2022-10-17T18:51:30.960Z,43.40
2022-10-17T18:53:58.749Z,45.67
2022-10-17T18:56:26.854Z,45.92
2022-10-17T18:58:54.481Z,47.83
2022-10-17T19:01:26.206Z,48.05
2022-10-17T19:03:58.173Z,48.47
2022-10-17T19:06:31.624Z,49.60
2022-10-17T19:09:05.417Z,49.45
2022-10-17T19:11:35.291Z,50.28
2022-10-17T19:14:12.556Z,52.42
2022-10-17T19:16:45.460Z,54.10
2022-10-17T19:19:22.178Z,53.72
2022-10-17T19:21:52.090Z,52.80
2022-10-17T19:24:24.934Z,53.35
2022-10-17T19:26:56.035Z,54.40
2022-10-17T19:29:27.968Z,53.83
2022-10-17T19:34:23.705Z,56.88
2022-10-17T19:36:51.390Z,54.28
2022-10-17T19:39:25.716Z,56.00
2022-10-17T19:41:53.190Z,60.58
2022-10-17T19:44:20.416Z,60.03
2022-10-17T19:46:49.088Z,58.72
2022-10-17T19:49:18.420Z,60.78
2022-10-17T19:51:45.859Z,61.00
2022-10-17T19:54:13.110Z,65.93
2022-10-17T19:56:43.038Z,64.25
2022-10-17T19:59:14.819Z,69.63
2022-10-17T20:01:43.049Z,71.30
2022-10-17T20:04:11.940Z,67.28
2022-10-17T20:06:40.540Z,72.03
2022-10-17T20:09:11.168Z,75.65
2022-10-17T20:11:42.698Z,79.35
2022-10-17T20:14:09.898Z,78.75
2022-10-17T20:16:37.658Z,75.20
2022-10-17T20:19:15.889Z,74.15
2022-10-17T20:21:43.992Z,73.78
2022-10-17T20:24:15.560Z,72.65
2022-10-17T20:26:43.558Z,71.88
2022-10-17T20:29:20.881Z,68.43
2022-10-17T20:31:48.757Z,70.32
2022-10-17T20:34:18.932Z,67.32
2022-10-17T20:36:47.167Z,68.53
2022-10-17T20:39:18.086Z,65.53
2022-10-17T20:41:46.721Z,68.30
2022-10-17T20:44:14.246Z,65.35
2022-10-17T20:46:52.700Z,66.03
2022-10-17T20:49:27.736Z,72.47
2022-10-17T20:51:54.878Z,67.70
2022-10-17T20:54:22.325Z,72.13
2022-10-17T20:56:49.557Z,72.38
2022-10-17T20:59:18.168Z,71.90
2022-10-17T21:01:46.404Z,69.68
2022-10-17T21:04:44.660Z,66.80
2022-10-17T21:07:01.836Z,62.58
2022-10-17T21:09:29.127Z,64.22
2022-10-17T21:11:56.825Z,68.45
2022-10-17T21:14:25.385Z,66.40
2022-10-17T21:16:53.037Z,63.80
2022-10-17T21:19:21.731Z,63.60
2022-10-17T21:21:49.057Z,66.60
2022-10-17T21:24:19.104Z,63.50
2022-10-17T21:26:50.254Z,64.78
2022-10-17T21:29:17.481Z,66.10
2022-10-17T21:31:45.301Z,65.28
2022-10-17T21:34:18.418Z,64.35
2022-10-17T21:36:45.951Z,65.28
2022-10-17T21:39:14.801Z,62.80
2022-10-17T21:41:43.299Z,61.88
2022-10-17T21:44:22.069Z,62.97
2022-10-17T21:46:49.698Z,61.63
2022-10-17T21:49:21.352Z,63.50
2022-10-17T21:51:50.465Z,61.90
2022-10-17T21:54:20.069Z,63.50
2022-10-17T21:56:47.253Z,62.65
2022-10-17T21:59:14.352Z,59.65
2022-10-17T22:01:46.059Z,63.58
2022-10-17T22:04:18.626Z,64.82
2022-10-17T22:06:51.120Z,61.50
2022-10-17T22:09:25.846Z,61.25
2022-10-17T22:11:56.755Z,65.43
2022-10-17T22:14:27.748Z,63.75
2022-10-17T22:16:55.602Z,62.03
2022-10-17T22:19:26.636Z,64.97
2022-10-17T22:21:55.377Z,67.43
2022-10-17T22:24:23.492Z,68.32
2022-10-17T22:26:51.188Z,66.30
2022-10-17T22:29:18.621Z,61.17
2022-10-17T22:31:45.969Z,62.20
2022-10-17T22:34:16.381Z,65.15
2022-10-17T22:36:43.970Z,61.00
2022-10-17T22:39:11.629Z,61.60
2022-10-17T22:41:38.924Z,60.78
2022-10-17T22:44:06.801Z,58.70
2022-10-17T22:46:34.341Z,57.67
2022-10-17T22:49:01.574Z,58.28
2022-10-17T22:51:28.868Z,58.30
2022-10-17T22:53:56.153Z,58.70
2022-10-17T22:56:23.871Z,56.92
2022-10-17T22:58:51.695Z,60.25
2022-10-17T23:01:23.823Z,59.25
2022-10-17T23:03:52.858Z,58.05
2022-10-17T23:06:21.305Z,58.30
2022-10-17T23:08:49.530Z,58.72
2022-10-17T23:11:17.165Z,58.33
2022-10-17T23:13:44.484Z,58.83
2022-10-17T23:16:11.680Z,58.30
2022-10-17T23:18:39.379Z,60.28
2022-10-17T23:21:07.549Z,57.75
2022-10-17T23:23:36.101Z,57.50
2022-10-17T23:26:12.040Z,57.88
2022-10-17T23:28:40.626Z,58.95
2022-10-17T23:31:20.723Z,57.78
2022-10-17T23:33:49.952Z,58.13
2022-10-17T23:36:20.605Z,59.22
2022-10-17T23:38:49.736Z,57.78
2022-10-17T23:41:18.208Z,57.97
2022-10-17T23:43:45.561Z,57.80
2022-10-17T23:46:12.963Z,57.10
2022-10-17T23:48:41.738Z,58.92
2022-10-17T23:51:10.650Z,59.08
2022-10-17T23:53:39.318Z,57.20
2022-10-17T23:56:08.230Z,57.30
2022-10-17T23:58:36.265Z,58.05
